Time;durP1;ratioP1;P1;durP2;ratioP2;P2;SDS_P1;SDS_P2;PMS_P1;PMS_P2;Temp;Humidity;BMP_temperature;BMP_pressure;BME280_temperature;BME280_humidity;BME280_pressure;Samples;Min_cycle;Max_cycle;Signal;HPM_P1;HPM_P2
2023/10/27 00:01:56;;;;;;;7.65;3.72;;;13.80;99.90;;;;;;5113389;28;20077;-69
2023/10/27 00:04:22;;;;;;;6.50;4.20;;;13.80;99.90;;;;;;5113173;28;20028;-69
2023/10/27 00:06:47;;;;;;;7.68;4.10;;;13.80;99.90;;;;;;5112608;28;20028;-69
2023/10/27 00:09:13;;;;;;;9.32;4.53;;;13.80;99.90;;;;;;5113098;28;20024;-69
2023/10/27 00:11:38;;;;;;;5.55;3.90;;;13.80;99.90;;;;;;5112527;28;20023;-69
2023/10/27 00:14:04;;;;;;;5.15;4.03;;;13.80;99.90;;;;;;5113107;28;20035;-69
2023/10/27 00:16:30;;;;;;;7.65;4.32;;;13.80;99.90;;;;;;5120418;28;20360;-69
2023/10/27 00:18:55;;;;;;;7.38;4.22;;;13.80;99.90;;;;;;5132683;28;20375;-69
2023/10/27 00:21:21;;;;;;;7.70;4.70;;;13.80;99.90;;;;;;5133009;28;20027;-69
2023/10/27 00:23:47;;;;;;;7.70;4.63;;;13.80;99.90;;;;;;5132942;28;20098;-69
2023/10/27 00:26:13;;;;;;;8.75;4.65;;;13.80;99.90;;;;;;5133218;28;20023;-69
2023/10/27 00:28:38;;;;;;;10.68;5.00;;;13.80;99.90;;;;;;5114579;28;20019;-70
2023/10/27 00:31:04;;;;;;;7.45;4.55;;;13.80;99.90;;;;;;5133231;28;20023;-69
2023/10/27 00:33:30;;;;;;;6.70;4.53;;;13.90;99.90;;;;;;5133291;28;20023;-70
2023/10/27 00:35:55;;;;;;;8.85;5.00;;;13.90;99.90;;;;;;5133071;28;20024;-69
2023/10/27 00:38:21;;;;;;;7.82;4.72;;;13.90;99.90;;;;;;5133858;27;20031;-69
2023/10/27 00:40:47;;;;;;;9.52;4.90;;;13.80;99.90;;;;;;5117837;27;20030;-69
2023/10/27 00:43:17;;;;;;;6.57;5.22;;;13.90;99.90;;;;;;5137220;27;20114;-69
2023/10/27 00:45:47;;;;;;;7.55;4.90;;;13.90;99.90;;;;;;5136633;27;20023;-68
2023/10/27 00:48:14;;;;;;;7.13;4.65;;;13.90;99.90;;;;;;5137047;27;20058;-69
2023/10/27 00:50:40;;;;;;;8.50;4.65;;;13.80;99.90;;;;;;5136200;27;20031;-68
2023/10/27 00:53:06;;;;;;;7.10;4.78;;;13.90;99.90;;;;;;5137128;27;20601;-69
2023/10/27 00:55:35;;;;;;;8.68;4.78;;;13.90;99.90;;;;;;5136682;27;20057;-68
2023/10/27 00:58:02;;;;;;;6.88;4.57;;;13.90;99.90;;;;;;5137031;27;20541;-69
2023/10/27 01:00:28;;;;;;;7.25;4.78;;;13.90;99.90;;;;;;5136857;27;20058;-68
2023/10/27 01:02:53;;;;;;;6.00;4.28;;;13.90;99.90;;;;;;5136255;27;20039;-69
2023/10/27 01:05:19;;;;;;;7.40;4.88;;;13.80;99.90;;;;;;5118074;27;20524;-68
2023/10/27 01:07:45;;;;;;;9.63;4.53;;;13.90;99.90;;;;;;5136336;27;20058;-68
2023/10/27 01:10:10;;;;;;;9.05;4.97;;;13.90;99.90;;;;;;5136715;27;20023;-70
2023/10/27 01:12:36;;;;;;;8.10;4.63;;;13.90;99.90;;;;;;5118005;27;20531;-71
2023/10/27 01:15:01;;;;;;;8.65;4.68;;;13.80;99.90;;;;;;5136530;27;20102;-70
2023/10/27 01:17:27;;;;;;;7.43;4.72;;;13.90;99.90;;;;;;5136703;27;20080;-70
2023/10/27 01:19:53;;;;;;;7.30;4.65;;;13.90;99.90;;;;;;5117974;27;20111;-70
2023/10/27 01:22:18;;;;;;;6.18;4.25;;;13.90;99.90;;;;;;5136609;27;20118;-70
2023/10/27 01:24:44;;;;;;;7.35;4.72;;;13.90;99.90;;;;;;5129918;27;20023;-68
2023/10/27 01:27:10;;;;;;;8.73;4.80;;;13.90;99.90;;;;;;5116142;28;20125;-70
2023/10/27 01:29:35;;;;;;;9.50;4.53;;;13.90;99.90;;;;;;5097547;28;20112;-69
2023/10/27 01:32:01;;;;;;;6.70;4.47;;;13.90;99.90;;;;;;5115744;28;20031;-70
2023/10/27 01:34:27;;;;;;;5.47;4.22;;;13.90;99.90;;;;;;5115550;28;20024;-70
2023/10/27 01:36:52;;;;;;;10.07;5.07;;;14.00;99.90;;;;;;5134939;27;20413;-70
2023/10/27 01:39:18;;;;;;;7.35;4.22;;;13.90;99.90;;;;;;5135982;27;20059;-69
2023/10/27 01:41:44;;;;;;;6.75;4.40;;;13.90;99.90;;;;;;5135106;27;20494;-69
2023/10/27 01:44:10;;;;;;;6.43;4.47;;;13.90;99.90;;;;;;5117768;27;20031;-69
2023/10/27 01:46:36;;;;;;;7.93;4.40;;;13.90;99.90;;;;;;5135567;27;20098;-68
2023/10/27 01:49:01;;;;;;;7.85;4.07;;;13.90;99.90;;;;;;5134807;27;20106;-69
2023/10/27 01:51:27;;;;;;;6.07;3.97;;;13.90;99.90;;;;;;5135233;27;20035;-70
2023/10/27 01:53:52;;;;;;;6.93;3.60;;;13.90;99.90;;;;;;5135440;27;20134;-69
2023/10/27 01:56:18;;;;;;;7.80;4.13;;;13.90;99.90;;;;;;5135603;27;20028;-71
2023/10/27 01:58:46;;;;;;;5.63;3.75;;;13.90;99.90;;;;;;5135718;27;20054;-69
2023/10/27 02:01:14;;;;;;;8.15;4.38;;;13.90;99.90;;;;;;5135699;27;20038;-69
2023/10/27 02:03:40;;;;;;;5.75;4.07;;;13.90;99.90;;;;;;5135168;27;20030;-70
2023/10/27 02:06:05;;;;;;;5.38;3.97;;;13.90;99.90;;;;;;5135331;27;20023;-68
2023/10/27 02:08:31;;;;;;;6.80;3.95;;;13.90;99.90;;;;;;5135604;27;20024;-69
2023/10/27 02:10:57;;;;;;;9.30;3.88;;;13.90;99.90;;;;;;5135125;27;20023;-69
2023/10/27 02:13:22;;;;;;;5.95;3.83;;;13.90;99.90;;;;;;5135826;27;20463;-69
2023/10/27 02:15:48;;;;;;;9.85;4.40;;;13.90;99.90;;;;;;5135305;27;20035;-70
2023/10/27 02:18:13;;;;;;;6.97;4.15;;;13.90;99.90;;;;;;5135333;27;20110;-70
2023/10/27 02:20:39;;;;;;;7.25;5.00;;;13.90;99.90;;;;;;5134877;27;20027;-70
2023/10/27 02:23:05;;;;;;;6.28;4.50;;;13.90;99.90;;;;;;5134559;27;20096;-70
2023/10/27 02:25:30;;;;;;;8.25;4.57;;;13.90;99.90;;;;;;5135094;27;20367;-69
2023/10/27 02:27:56;;;;;;;6.63;4.82;;;13.80;99.90;;;;;;5134396;27;20033;-70
2023/10/27 02:30:22;;;;;;;9.88;5.72;;;13.80;99.90;;;;;;5134896;27;20098;-69
2023/10/27 02:32:47;;;;;;;10.00;5.78;;;13.70;99.90;;;;;;5134423;27;20051;-68
2023/10/27 02:35:13;;;;;;;7.10;5.50;;;13.70;99.90;;;;;;5134674;27;20425;-68
2023/10/27 02:37:39;;;;;;;10.63;6.05;;;13.70;99.90;;;;;;5134779;27;20027;-69
2023/10/27 02:40:06;;;;;;;7.80;5.45;;;13.70;99.90;;;;;;5134075;27;20035;-69
2023/10/27 02:42:31;;;;;;;7.53;5.45;;;13.70;99.90;;;;;;5134764;27;20073;-69
2023/10/27 02:44:57;;;;;;;9.68;5.88;;;13.70;99.90;;;;;;5134132;27;20059;-70
2023/10/27 02:47:23;;;;;;;7.78;5.30;;;13.70;99.90;;;;;;5134724;27;20024;-70
2023/10/27 02:49:48;;;;;;;9.30;5.40;;;13.70;99.90;;;;;;5133839;27;20051;-70
2023/10/27 02:52:14;;;;;;;8.82;6.05;;;13.70;99.90;;;;;;5134666;27;20058;-69
2023/10/27 02:54:40;;;;;;;10.70;5.93;;;13.70;99.90;;;;;;5134590;27;20502;-69
2023/10/27 02:57:05;;;;;;;11.15;5.72;;;13.60;99.90;;;;;;5134001;27;20051;-69
2023/10/27 02:59:31;;;;;;;6.75;5.70;;;13.60;99.90;;;;;;5134490;27;20486;-69
2023/10/27 03:01:58;;;;;;;8.75;5.25;;;13.60;99.90;;;;;;5133305;27;20045;-68
2023/10/27 03:04:27;;;;;;;8.63;6.10;;;13.60;99.90;;;;;;5134612;27;20035;-69
2023/10/27 03:06:52;;;;;;;6.88;5.60;;;13.60;99.90;;;;;;5134052;27;20072;-69
2023/10/27 03:09:18;;;;;;;8.60;5.72;;;13.60;99.90;;;;;;5134015;27;20023;-68
2023/10/27 03:11:43;;;;;;;8.45;5.75;;;13.60;99.90;;;;;;5134035;27;20486;-80
2023/10/27 03:14:09;;;;;;;9.10;5.78;;;13.60;99.90;;;;;;5134555;27;20035;-70
2023/10/27 03:16:35;;;;;;;8.20;5.80;;;13.60;99.90;;;;;;5134739;27;20489;-70
2023/10/27 03:19:01;;;;;;;8.00;5.68;;;13.60;99.90;;;;;;5134360;27;20019;-69
2023/10/27 03:21:26;;;;;;;10.45;5.47;;;13.60;99.90;;;;;;5134433;27;20035;-69
2023/10/27 03:23:52;;;;;;;8.40;5.82;;;13.60;99.90;;;;;;5133831;27;20027;-68
2023/10/27 03:26:17;;;;;;;7.60;5.60;;;13.60;99.90;;;;;;5134181;27;20110;-70
2023/10/27 03:28:43;;;;;;;10.00;5.80;;;13.60;99.90;;;;;;5129809;27;20471;-68
2023/10/27 03:31:12;;;;;;;8.00;5.75;;;13.60;99.90;;;;;;5133664;27;20106;-69
2023/10/27 03:33:38;;;;;;;8.45;6.18;;;13.50;99.90;;;;;;5133927;27;20115;-69
2023/10/27 03:36:04;;;;;;;8.88;6.13;;;13.50;99.90;;;;;;5133538;27;20105;-69
2023/10/27 03:38:30;;;;;;;8.18;5.75;;;13.50;99.90;;;;;;5133376;27;20076;-69
2023/10/27 03:40:55;;;;;;;10.23;6.55;;;13.50;99.90;;;;;;5132995;27;20027;-69
2023/10/27 03:43:21;;;;;;;9.75;5.85;;;13.50;99.90;;;;;;5133779;27;20034;-69
2023/10/27 03:45:47;;;;;;;8.60;6.45;;;13.50;99.90;;;;;;5133682;27;20020;-72
2023/10/27 03:48:14;;;;;;;8.63;7.65;;;13.50;99.90;;;;;;5133806;27;20246;-69
2023/10/27 03:50:39;;;;;;;10.60;6.28;;;13.50;99.90;;;;;;5133730;27;20028;-70
2023/10/27 03:53:05;;;;;;;8.00;6.82;;;13.50;99.90;;;;;;5132846;28;20030;-71
2023/10/27 03:55:31;;;;;;;10.82;6.22;;;13.50;99.90;;;;;;5133663;28;20043;-70
2023/10/27 03:58:15;;;;;;;10.30;7.15;;;13.50;99.90;;;;;;5133414;28;20035;-70
2023/10/27 04:00:41;;;;;;;9.63;7.20;;;13.50;99.90;;;;;;5133874;28;20027;-70
2023/10/27 04:03:07;;;;;;;8.73;6.78;;;13.50;99.90;;;;;;5133189;28;20046;-68
2023/10/27 04:05:32;;;;;;;8.43;6.82;;;13.40;99.90;;;;;;5133679;28;20022;-68
2023/10/27 04:07:58;;;;;;;9.73;7.63;;;13.40;99.90;;;;;;5133195;28;20027;-68
2023/10/27 04:10:23;;;;;;;9.50;7.57;;;13.40;99.90;;;;;;5133561;28;20031;-68
2023/10/27 04:12:49;;;;;;;10.07;7.28;;;13.40;99.90;;;;;;5133394;27;20084;-71
2023/10/27 04:15:15;;;;;;;10.00;7.63;;;13.40;99.90;;;;;;5137283;27;20019;-69
2023/10/27 04:17:40;;;;;;;9.10;7.00;;;13.40;99.90;;;;;;5137695;27;20447;-69
2023/10/27 04:20:07;;;;;;;9.18;7.25;;;13.40;99.90;;;;;;5137201;27;20023;-68
2023/10/27 04:22:33;;;;;;;9.70;6.93;;;13.40;99.90;;;;;;5136723;27;20414;-70
2023/10/27 04:24:59;;;;;;;10.90;7.90;;;13.40;99.90;;;;;;5137144;27;20027;-70
2023/10/27 04:27:25;;;;;;;12.50;7.70;;;13.40;99.90;;;;;;5137512;27;20475;-69
2023/10/27 04:29:51;;;;;;;11.52;7.20;;;13.30;99.90;;;;;;5137242;27;20027;-78
2023/10/27 04:32:18;;;;;;;10.35;7.88;;;13.30;99.90;;;;;;5137027;27;20023;-70
2023/10/27 04:34:44;;;;;;;9.32;7.45;;;13.30;99.90;;;;;;5137236;27;20034;-70
2023/10/27 04:37:10;;;;;;;9.38;8.07;;;13.30;99.90;;;;;;5136418;27;20023;-69
2023/10/27 04:39:36;;;;;;;8.60;6.65;;;13.30;99.90;;;;;;5137276;27;20110;-69
2023/10/27 04:42:01;;;;;;;10.77;8.32;;;13.30;99.90;;;;;;5136734;27;20152;-68
2023/10/27 04:44:27;;;;;;;11.50;7.40;;;13.30;99.90;;;;;;5137179;27;20120;-70
2023/10/27 04:46:53;;;;;;;12.27;7.63;;;13.30;99.90;;;;;;5136547;27;20115;-70
2023/10/27 04:49:18;;;;;;;10.07;7.25;;;13.30;99.90;;;;;;5136512;27;20102;-70
2023/10/27 04:51:44;;;;;;;13.73;7.68;;;13.30;99.90;;;;;;5136900;27;20034;-69
2023/10/27 04:54:10;;;;;;;10.45;7.55;;;13.30;99.90;;;;;;5136489;27;20028;-69
2023/10/27 04:56:35;;;;;;;7.78;6.95;;;13.30;99.90;;;;;;5137081;27;20372;-67
2023/10/27 04:59:01;;;;;;;11.38;8.30;;;13.30;99.90;;;;;;5136544;27;20027;-69
2023/10/27 05:01:27;;;;;;;10.13;7.22;;;13.40;99.90;;;;;;5136354;27;20487;-69
2023/10/27 05:03:53;;;;;;;10.77;7.40;;;13.40;99.90;;;;;;5136098;27;20019;-75
2023/10/27 05:06:18;;;;;;;10.82;7.40;;;13.40;99.90;;;;;;5136941;27;20059;-68
2023/10/27 05:08:45;;;;;;;13.32;8.18;;;13.40;99.90;;;;;;5136727;27;20068;-69
2023/10/27 05:11:11;;;;;;;10.48;7.65;;;13.30;99.90;;;;;;5136015;27;20027;-69
2023/10/27 05:13:37;;;;;;;14.13;8.15;;;13.40;99.90;;;;;;5136837;27;20031;-69
2023/10/27 05:16:04;;;;;;;11.18;7.43;;;13.40;99.90;;;;;;5135551;27;20459;-69
2023/10/27 05:18:29;;;;;;;9.95;7.30;;;13.40;99.90;;;;;;5136020;27;20027;-70
2023/10/27 05:20:55;;;;;;;9.32;7.70;;;13.40;99.90;;;;;;5135635;27;20076;-70
2023/10/27 05:23:21;;;;;;;8.98;8.00;;;13.40;99.90;;;;;;5132398;27;20080;-70
2023/10/27 05:25:47;;;;;;;10.65;6.90;;;13.40;99.90;;;;;;5135963;27;20406;-69
2023/10/27 05:28:12;;;;;;;8.77;7.45;;;13.40;99.90;;;;;;5136136;27;20019;-70
2023/10/27 05:30:38;;;;;;;7.80;7.00;;;13.40;99.90;;;;;;5136344;27;20033;-70
2023/10/27 05:33:04;;;;;;;8.50;7.13;;;13.40;99.90;;;;;;5135814;27;20038;-70
2023/10/27 05:35:30;;;;;;;8.43;7.63;;;13.40;99.90;;;;;;5135779;27;20034;-69
2023/10/27 05:37:55;;;;;;;8.80;6.93;;;13.40;99.90;;;;;;5135493;27;20023;-76
2023/10/27 05:40:22;;;;;;;10.30;7.18;;;13.40;99.90;;;;;;5135430;27;20023;-69
2023/10/27 05:42:48;;;;;;;7.35;6.65;;;13.40;99.90;;;;;;5135766;27;20061;-69
2023/10/27 05:45:14;;;;;;;7.45;6.28;;;13.50;99.90;;;;;;5135554;27;20035;-70
2023/10/27 05:47:40;;;;;;;7.18;5.90;;;13.50;99.90;;;;;;5136313;27;20019;-70
2023/10/27 05:50:07;;;;;;;6.10;5.50;;;13.50;99.90;;;;;;5135562;27;20023;-70
2023/10/27 05:52:33;;;;;;;5.80;5.20;;;13.50;99.90;;;;;;5135849;27;20043;-68
2023/10/27 05:54:59;;;;;;;6.55;5.28;;;13.50;99.90;;;;;;5135551;27;20107;-69
2023/10/27 05:57:25;;;;;;;5.68;5.13;;;13.50;99.90;;;;;;5135825;27;20142;-69
2023/10/27 05:59:50;;;;;;;6.55;4.78;;;13.50;99.90;;;;;;5135637;27;20080;-69
2023/10/27 06:02:16;;;;;;;5.38;4.68;;;13.50;99.90;;;;;;5134744;27;20031;-69
2023/10/27 06:04:42;;;;;;;6.57;5.18;;;13.50;99.90;;;;;;5135645;27;20023;-69
2023/10/27 06:07:08;;;;;;;6.05;5.15;;;13.50;99.90;;;;;;5135047;27;20031;-70
2023/10/27 06:09:35;;;;;;;6.75;4.97;;;13.60;99.90;;;;;;5135068;27;20030;-69
2023/10/27 06:12:01;;;;;;;7.95;5.47;;;13.60;99.90;;;;;;5134938;27;20027;-70
2023/10/27 06:14:27;;;;;;;7.47;5.43;;;13.60;99.90;;;;;;5135433;27;20023;-69
2023/10/27 06:16:53;;;;;;;8.13;6.03;;;13.60;99.90;;;;;;5135081;27;20071;-69
2023/10/27 06:19:19;;;;;;;7.07;5.65;;;13.60;99.90;;;;;;5134637;27;20054;-69
2023/10/27 06:21:47;;;;;;;6.43;4.82;;;13.60;99.90;;;;;;5135025;27;20487;-69
2023/10/27 06:24:13;;;;;;;7.35;5.22;;;13.60;99.90;;;;;;5134725;27;20459;-70
2023/10/27 06:26:38;;;;;;;4.78;4.03;;;13.70;99.90;;;;;;5135062;27;20020;-69
2023/10/27 06:29:04;;;;;;;6.85;4.45;;;13.70;99.90;;;;;;5134641;27;20427;-70
2023/10/27 06:31:30;;;;;;;4.57;3.95;;;13.70;99.90;;;;;;5134663;27;20084;-70
2023/10/27 06:33:56;;;;;;;5.25;4.50;;;13.70;99.90;;;;;;5116465;27;20029;-70
2023/10/27 06:36:21;;;;;;;4.90;4.35;;;13.70;99.90;;;;;;5133826;27;20084;-70
2023/10/27 06:38:47;;;;;;;5.13;4.10;;;13.70;99.90;;;;;;5134721;27;20459;-70
2023/10/27 06:41:13;;;;;;;6.15;4.55;;;13.80;99.90;;;;;;5134320;27;20035;-69
2023/10/27 06:43:38;;;;;;;5.93;4.88;;;13.70;99.90;;;;;;5135261;27;20061;-70
2023/10/27 06:46:04;;;;;;;4.85;4.25;;;13.70;99.90;;;;;;5134258;27;20034;-69
2023/10/27 06:48:30;;;;;;;4.82;4.32;;;13.80;99.90;;;;;;5134372;27;20031;-68
2023/10/27 06:50:55;;;;;;;4.63;4.22;;;13.80;99.90;;;;;;5134555;27;20432;-68
2023/10/27 06:53:21;;;;;;;4.85;4.28;;;13.80;99.90;;;;;;5133808;27;20084;-69
2023/10/27 06:55:46;;;;;;;4.47;4.07;;;13.80;99.90;;;;;;5134150;27;20060;-69
2023/10/27 06:58:12;;;;;;;5.25;3.92;;;13.80;99.90;;;;;;5133657;27;20039;-69
2023/10/27 07:00:37;;;;;;;4.18;3.78;;;13.80;99.90;;;;;;5134793;27;20067;-69
2023/10/27 07:03:03;;;;;;;5.10;4.38;;;13.80;99.90;;;;;;5133811;27;20038;-69
2023/10/27 07:05:29;;;;;;;5.90;3.75;;;13.80;99.90;;;;;;5134098;27;20453;-69
2023/10/27 07:07:54;;;;;;;4.63;3.65;;;13.80;99.90;;;;;;5134307;27;20027;-69
2023/10/27 07:10:20;;;;;;;5.32;3.92;;;13.80;99.90;;;;;;5133668;27;20027;-69
2023/10/27 07:12:47;;;;;;;4.15;3.22;;;13.90;99.90;;;;;;5133841;27;20027;-68
2023/10/27 07:15:13;;;;;;;4.57;3.63;;;13.90;99.90;;;;;;5133383;27;20035;-69
2023/10/27 07:17:40;;;;;;;4.50;3.17;;;13.80;99.90;;;;;;5115340;27;20425;-69
2023/10/27 07:20:06;;;;;;;5.28;3.08;;;13.90;99.90;;;;;;5133266;27;20074;-76
2023/10/27 07:22:31;;;;;;;4.07;3.58;;;13.80;99.90;;;;;;5127434;27;20495;-68
2023/10/27 07:24:57;;;;;;;3.95;2.80;;;13.80;99.90;;;;;;5113401;28;20028;-69
2023/10/27 07:27:23;;;;;;;3.58;2.92;;;13.90;99.90;;;;;;5112609;28;20056;-69
2023/10/27 07:29:48;;;;;;;4.57;2.80;;;13.80;99.90;;;;;;5113213;28;20024;-69
2023/10/27 07:32:14;;;;;;;3.45;2.63;;;13.80;99.90;;;;;;5112565;28;20023;-69
2023/10/27 07:34:40;;;;;;;3.85;3.05;;;13.80;99.90;;;;;;5113353;28;20024;-69
2023/10/27 07:37:06;;;;;;;3.55;2.00;;;13.80;99.90;;;;;;5112937;28;20027;-70
2023/10/27 07:39:32;;;;;;;4.57;2.50;;;13.80;99.90;;;;;;5095212;28;20024;-68
2023/10/27 07:41:58;;;;;;;3.33;1.60;;;13.80;99.90;;;;;;5091537;28;20039;-69
2023/10/27 07:44:23;;;;;;;2.20;1.85;;;13.70;99.90;;;;;;5112949;28;20114;-69
2023/10/27 07:46:49;;;;;;;2.00;1.55;;;13.70;99.90;;;;;;5113246;28;20483;-69
2023/10/27 07:49:14;;;;;;;1.70;1.20;;;13.70;99.90;;;;;;5112840;28;20076;-70
2023/10/27 07:51:40;;;;;;;2.00;1.40;;;13.70;99.90;;;;;;5113244;28;20476;-70
2023/10/27 07:54:06;;;;;;;3.33;1.60;;;13.70;99.90;;;;;;5112637;28;20039;-77
2023/10/27 07:56:33;;;;;;;3.72;1.30;;;13.70;99.90;;;;;;5112694;28;20043;-68
2023/10/27 07:58:59;;;;;;;2.03;1.30;;;13.70;99.90;;;;;;5113163;28;20048;-69
2023/10/27 08:01:24;;;;;;;1.13;1.02;;;13.70;99.90;;;;;;5112174;28;20075;-69
2023/10/27 08:03:50;;;;;;;1.45;1.10;;;13.60;99.90;;;;;;5113160;28;20058;-68
2023/10/27 08:06:16;;;;;;;1.23;1.10;;;13.60;99.90;;;;;;5112529;28;20353;-68
2023/10/27 08:08:42;;;;;;;2.65;1.42;;;13.60;99.90;;;;;;5112853;28;20030;-68
2023/10/27 08:11:15;;;;;;;1.90;0.85;;;13.50;99.90;;;;;;5112792;28;20019;-74
2023/10/27 08:13:40;;;;;;;2.60;0.93;;;13.50;99.90;;;;;;5112899;28;20031;-67
2023/10/27 08:16:06;;;;;;;1.30;0.68;;;13.40;99.90;;;;;;5112700;28;20027;-68
2023/10/27 08:18:31;;;;;;;0.90;0.52;;;13.40;99.90;;;;;;5094258;28;20024;-68
2023/10/27 08:20:57;;;;;;;1.05;0.70;;;13.30;99.90;;;;;;5112990;28;20084;-69
2023/10/27 08:23:23;;;;;;;1.48;0.70;;;13.20;99.90;;;;;;5112498;28;20023;-69
2023/10/27 08:25:51;;;;;;;2.70;0.70;;;13.20;99.90;;;;;;5112590;28;20054;-68
2023/10/27 08:28:16;;;;;;;1.58;0.80;;;13.10;99.90;;;;;;5124729;28;20015;-69
2023/10/27 08:30:43;;;;;;;0.80;0.60;;;13.10;99.90;;;;;;5133954;28;20033;-68
2023/10/27 08:33:09;;;;;;;0.90;0.52;;;13.00;99.90;;;;;;5133203;28;20448;-72
2023/10/27 08:35:35;;;;;;;1.90;0.90;;;13.00;99.90;;;;;;5133431;28;20106;-69
2023/10/27 08:38:00;;;;;;;0.90;0.80;;;12.90;99.90;;;;;;5133210;28;20027;-68
2023/10/27 08:40:27;;;;;;;1.00;0.63;;;12.90;99.90;;;;;;5133023;28;20053;-68
2023/10/27 08:42:54;;;;;;;1.30;1.13;;;12.70;99.90;;;;;;5133247;28;20068;-68
2023/10/27 08:45:22;;;;;;;1.55;1.00;;;12.70;99.90;;;;;;5132523;28;20027;-68
2023/10/27 08:47:48;;;;;;;3.08;1.00;;;12.60;99.90;;;;;;5132975;28;20352;-69
2023/10/27 08:50:13;;;;;;;0.75;0.70;;;12.50;99.90;;;;;;5114544;28;20034;-69
2023/10/27 08:52:39;;;;;;;1.40;1.27;;;12.40;99.90;;;;;;5114918;28;20031;-68
2023/10/27 08:55:10;;;;;;;1.70;1.05;;;12.40;99.90;;;;;;5133253;28;20019;-68
2023/10/27 08:57:37;;;;;;;4.32;1.00;;;12.30;99.90;;;;;;5132748;28;20483;-69
2023/10/27 09:00:06;;;;;;;2.88;1.25;;;12.30;99.90;;;;;;5134894;27;20042;-69
2023/10/27 09:02:32;;;;;;;2.25;1.08;;;12.30;99.90;;;;;;5136244;27;20038;-68
2023/10/27 09:05:09;;;;;;;2.00;1.23;;;12.30;99.90;;;;;;5118455;27;20110;-68
2023/10/27 09:07:38;;;;;;;1.17;1.02;;;12.30;99.90;;;;;;5118204;27;20459;-68
2023/10/27 09:10:06;;;;;;;1.00;0.90;;;12.40;99.90;;;;;;5136650;27;20059;-68
2023/10/27 09:12:36;;;;;;;1.35;1.20;;;12.40;99.90;;;;;;5136087;27;20062;-68
2023/10/27 09:15:07;;;;;;;1.58;0.82;;;12.40;99.90;;;;;;5118132;27;20019;-68
2023/10/27 09:17:56;;;;;;;1.90;1.08;;;12.50;99.90;;;;;;5136167;27;20057;-67
2023/10/27 09:20:26;;;;;;;1.17;0.90;;;12.50;99.90;;;;;;5135961;27;20027;-69
2023/10/27 09:23:09;;;;;;;2.03;1.20;;;12.60;99.90;;;;;;5136277;27;20031;-68
2023/10/27 09:25:35;;;;;;;1.00;0.90;;;12.60;99.90;;;;;;5135713;27;20027;-69
2023/10/27 09:28:03;;;;;;;1.20;1.00;;;12.60;99.90;;;;;;5130611;27;20094;-69
2023/10/27 09:30:32;;;;;;;2.33;1.10;;;12.70;99.90;;;;;;5135810;27;20023;-69
2023/10/27 09:33:18;;;;;;;2.10;1.27;;;12.70;99.90;;;;;;5117692;27;20023;-68
2023/10/27 09:35:44;;;;;;;4.53;1.08;;;12.70;99.90;;;;;;5136233;27;20115;-69
2023/10/27 09:38:12;;;;;;;2.80;1.30;;;12.80;99.90;;;;;;5136486;27;20027;-68
2023/10/27 09:40:39;;;;;;;3.08;1.30;;;12.80;99.90;;;;;;5135528;27;20371;-69
2023/10/27 09:43:08;;;;;;;2.38;1.50;;;12.80;99.90;;;;;;5117383;27;20107;-69
2023/10/27 09:45:37;;;;;;;3.10;1.60;;;12.80;99.90;;;;;;5135382;27;20027;-69
2023/10/27 09:48:05;;;;;;;3.38;1.65;;;12.80;99.90;;;;;;5135795;27;20027;-69
2023/10/27 09:50:32;;;;;;;1.77;1.60;;;12.80;99.90;;;;;;5135252;27;20053;-67
2023/10/27 09:53:02;;;;;;;2.85;2.08;;;12.80;99.90;;;;;;5135577;27;20023;-68
2023/10/27 09:55:29;;;;;;;3.03;1.85;;;12.80;99.90;;;;;;5135301;27;20023;-68
2023/10/27 09:57:55;;;;;;;2.05;1.70;;;12.90;99.90;;;;;;5135613;27;20058;-68
2023/10/27 10:00:29;;;;;;;6.05;2.28;;;12.90;99.90;;;;;;5116938;27;20030;-68
2023/10/27 10:02:56;;;;;;;4.00;1.65;;;12.90;99.90;;;;;;5135579;27;20031;-69
2023/10/27 10:05:23;;;;;;;3.40;1.90;;;12.90;99.90;;;;;;5134950;27;20024;-69
2023/10/27 10:07:52;;;;;;;2.42;1.73;;;12.90;99.90;;;;;;5116979;27;20497;-69
2023/10/27 10:10:30;;;;;;;1.92;1.58;;;12.90;99.90;;;;;;5134106;27;20052;-70
2023/10/27 10:13:05;;;;;;;2.35;1.83;;;12.90;99.90;;;;;;5135047;27;20062;-68
2023/10/27 10:15:36;;;;;;;2.92;1.33;;;12.90;99.90;;;;;;5116210;27;20380;-70
2023/10/27 10:18:06;;;;;;;3.30;1.63;;;12.90;99.90;;;;;;5135047;27;20476;-68
2023/10/27 10:20:56;;;;;;;1.93;1.43;;;12.90;99.90;;;;;;5116442;27;20031;-68
2023/10/27 10:23:24;;;;;;;2.45;1.45;;;12.90;99.90;;;;;;5123907;27;20420;-70
2023/10/27 10:25:57;;;;;;;1.58;1.10;;;12.90;99.90;;;;;;5135579;27;20353;-69
2023/10/27 10:28:24;;;;;;;2.58;1.10;;;12.90;99.90;;;;;;5135071;27;20478;-69
2023/10/27 10:31:18;;;;;;;2.13;1.52;;;12.90;99.90;;;;;;5135689;27;20139;-68
2023/10/27 10:33:48;;;;;;;2.28;1.23;;;12.90;99.90;;;;;;5135106;27;20094;-69
2023/10/27 10:36:22;;;;;;;1.38;1.10;;;12.90;99.90;;;;;;5116497;27;20411;-70
2023/10/27 10:38:57;;;;;;;1.58;1.10;;;13.00;99.90;;;;;;5135084;27;20071;-69
2023/10/27 10:41:43;;;;;;;2.40;1.15;;;13.00;99.90;;;;;;5134505;27;20031;-70
2023/10/27 10:44:14;;;;;;;2.35;1.33;;;13.00;99.90;;;;;;5102442;27;20426;-69
2023/10/27 10:46:40;;;;;;;2.35;1.27;;;13.00;99.90;;;;;;5134346;27;20023;-69
2023/10/27 10:49:06;;;;;;;1.73;1.20;;;13.10;99.90;;;;;;5134568;27;20023;-69
2023/10/27 10:51:37;;;;;;;1.52;1.17;;;13.10;99.90;;;;;;5134136;27;20031;-69
2023/10/27 10:54:08;;;;;;;3.17;1.83;;;13.10;99.90;;;;;;5116099;27;20385;-70
2023/10/27 10:56:34;;;;;;;1.75;1.25;;;13.20;99.90;;;;;;5133337;27;20144;-69
2023/10/27 10:59:03;;;;;;;1.63;1.13;;;13.20;99.90;;;;;;5134312;27;20059;-68
2023/10/27 11:01:30;;;;;;;3.17;1.00;;;13.20;99.90;;;;;;5133634;27;20031;-69
2023/10/27 11:03:56;;;;;;;1.45;1.00;;;13.20;99.90;;;;;;5115988;27;20034;-69
2023/10/27 11:06:24;;;;;;;1.35;0.98;;;13.20;99.90;;;;;;5133481;27;20027;-70
2023/10/27 11:08:50;;;;;;;1.35;1.08;;;13.30;99.90;;;;;;5134156;27;20023;-69
2023/10/27 11:11:19;;;;;;;1.45;0.95;;;13.30;99.90;;;;;;5133989;27;20034;-70
2023/10/27 11:13:49;;;;;;;0.90;0.88;;;13.30;99.90;;;;;;5133433;27;20034;-69
2023/10/27 11:16:16;;;;;;;3.13;1.27;;;13.30;99.90;;;;;;5134093;27;20019;-70
2023/10/27 11:18:43;;;;;;;1.48;1.05;;;13.30;99.90;;;;;;5133721;27;20164;-70
2023/10/27 11:21:35;;;;;;;3.63;1.10;;;13.30;99.90;;;;;;5134059;27;20380;-69
2023/10/27 11:24:07;;;;;;;1.10;1.00;;;13.30;99.90;;;;;;5129764;27;20468;-69
2023/10/27 11:26:41;;;;;;;1.25;1.00;;;13.40;99.90;;;;;;5133572;27;20048;-69
2023/10/27 11:29:07;;;;;;;1.40;1.00;;;13.50;99.90;;;;;;5134156;27;20063;-69
2023/10/27 11:31:39;;;;;;;1.27;1.15;;;13.50;99.90;;;;;;5133908;27;20166;-70
2023/10/27 11:34:06;;;;;;;1.40;0.93;;;13.50;99.90;;;;;;5133537;27;20069;-69
2023/10/27 11:36:34;;;;;;;2.85;1.30;;;13.60;99.90;;;;;;5121428;27;20031;-69
2023/10/27 11:39:17;;;;;;;1.02;0.80;;;13.60;99.90;;;;;;5113358;28;20369;-69
2023/10/27 11:42:04;;;;;;;1.55;1.10;;;13.60;99.90;;;;;;5112846;28;20610;-69
2023/10/27 11:44:31;;;;;;;1.38;1.00;;;13.60;99.90;;;;;;5112592;28;20035;-69
2023/10/27 11:46:58;;;;;;;1.40;1.00;;;13.60;99.90;;;;;;5113363;28;20103;-69
2023/10/27 11:49:25;;;;;;;1.75;1.00;;;13.60;99.90;;;;;;5094556;28;20417;-70
2023/10/27 11:51:53;;;;;;;2.25;0.75;;;13.60;99.90;;;;;;5113240;28;20024;-69
2023/10/27 11:54:19;;;;;;;1.30;0.93;;;13.60;99.90;;;;;;5112843;28;20027;-70
2023/10/27 11:56:46;;;;;;;1.00;0.90;;;13.60;99.90;;;;;;5112250;28;20115;-70
2023/10/27 11:59:12;;;;;;;1.55;1.10;;;13.60;99.90;;;;;;5130532;28;20415;-70
2023/10/27 12:01:38;;;;;;;1.35;0.95;;;13.60;99.90;;;;;;5132943;28;20027;-70
2023/10/27 12:04:12;;;;;;;0.90;0.85;;;13.60;99.90;;;;;;5133160;28;20039;-70
2023/10/27 12:06:41;;;;;;;2.15;1.02;;;13.60;99.90;;;;;;5132969;28;20023;-70
2023/10/27 12:09:08;;;;;;;1.10;0.98;;;13.60;99.90;;;;;;5133368;28;20030;-70
2023/10/27 12:11:35;;;;;;;2.28;0.98;;;13.60;99.90;;;;;;5132856;28;20031;-69
2023/10/27 12:14:01;;;;;;;1.42;1.00;;;13.70;99.90;;;;;;5133055;28;20094;-68
2023/10/27 12:16:29;;;;;;;1.15;0.95;;;13.70;99.90;;;;;;5114527;28;20058;-71
2023/10/27 12:18:56;;;;;;;1.58;1.00;;;13.70;99.90;;;;;;5133305;28;20031;-68
2023/10/27 12:21:23;;;;;;;2.42;1.00;;;13.70;99.90;;;;;;5133046;28;20099;-69
2023/10/27 12:23:49;;;;;;;1.90;1.20;;;13.70;99.90;;;;;;5114487;28;20023;-69
2023/10/27 12:26:15;;;;;;;1.70;0.98;;;13.80;99.90;;;;;;5132617;28;20098;-69
2023/10/27 12:28:40;;;;;;;2.58;1.05;;;13.80;99.90;;;;;;5132378;28;20023;-69
2023/10/27 12:31:06;;;;;;;1.80;1.08;;;13.80;99.90;;;;;;5132895;28;20054;-69
2023/10/27 12:33:32;;;;;;;0.95;0.88;;;13.80;99.90;;;;;;5132450;27;20023;-69
2023/10/27 12:36:09;;;;;;;1.30;1.00;;;13.80;99.90;;;;;;5136586;27;20033;-69
2023/10/27 12:38:35;;;;;;;1.90;1.50;;;13.80;99.90;;;;;;5136636;27;20019;-69
2023/10/27 12:41:01;;;;;;;1.77;1.10;;;13.80;99.90;;;;;;5137072;27;20023;-69
2023/10/27 12:43:29;;;;;;;1.50;1.10;;;13.80;99.90;;;;;;5136917;27;20383;-69
2023/10/27 12:45:54;;;;;;;1.90;1.00;;;13.80;99.90;;;;;;5136597;27;20033;-69